sensor_id;sensor_type;location;lat;lon;timestamp;temperature;humidity
2571;DHT22;1295;51.130;6.732;2023-04-01T00:00:26;10.80;99.90
2571;DHT22;1295;51.130;6.732;2023-04-01T00:02:53;11.00;99.90
2571;DHT22;1295;51.130;6.732;2023-04-01T00:05:19;11.00;99.90
2571;DHT22;1295;51.130;6.732;2023-04-01T00:07:45;10.60;99.90
2571;DHT22;1295;51.130;6.732;2023-04-01T00:10:11;10.60;99.90
2571;DHT22;1295;51.130;6.732;2023-04-01T00:12:38;10.50;99.90
2571;DHT22;1295;51.130;6.732;2023-04-01T00:15:03;10.50;99.90
2571;DHT22;1295;51.130;6.732;2023-04-01T00:17:29;10.70;99.90
2571;DHT22;1295;51.130;6.732;2023-04-01T00:19:55;10.80;99.90
2571;DHT22;1295;51.130;6.732;2023-04-01T00:22:20;11.00;99.90
2571;DHT22;1295;51.130;6.732;2023-04-01T00:24:46;10.80;99.90
2571;DHT22;1295;51.130;6.732;2023-04-01T00:27:19;10.80;99.90
2571;DHT22;1295;51.130;6.732;2023-04-01T00:29:45;10.80;99.90
2571;DHT22;1295;51.130;6.732;2023-04-01T00:32:10;10.80;99.90
2571;DHT22;1295;51.130;6.732;2023-04-01T00:34:36;10.70;99.90
2571;DHT22;1295;51.130;6.732;2023-04-01T00:37:02;10.70;99.90
2571;DHT22;1295;51.130;6.732;2023-04-01T00:39:29;10.80;99.90
2571;DHT22;1295;51.130;6.732;2023-04-01T00:41:55;10.80;99.90
2571;DHT22;1295;51.130;6.732;2023-04-01T00:44:22;10.80;99.90
2571;DHT22;1295;51.130;6.732;2023-04-01T00:46:46;10.80;99.90
2571;DHT22;1295;51.130;6.732;2023-04-01T00:49:12;10.70;99.90
2571;DHT22;1295;51.130;6.732;2023-04-01T00:51:38;10.80;99.90
2571;DHT22;1295;51.130;6.732;2023-04-01T00:54:04;10.70;99.90
2571;DHT22;1295;51.130;6.732;2023-04-01T00:56:34;10.70;99.90
2571;DHT22;1295;51.130;6.732;2023-04-01T00:59:01;10.90;99.90
2571;DHT22;1295;51.130;6.732;2023-04-01T01:01:27;10.60;99.90
2571;DHT22;1295;51.130;6.732;2023-04-01T01:03:52;10.60;99.90
2571;DHT22;1295;51.130;6.732;2023-04-01T01:06:56;10.70;99.90
2571;DHT22;1295;51.130;6.732;2023-04-01T01:09:28;10.70;99.90
2571;DHT22;1295;51.130;6.732;2023-04-01T01:11:57;10.70;99.90
2571;DHT22;1295;51.130;6.732;2023-04-01T01:14:37;11.00;99.90
2571;DHT22;1295;51.130;6.732;2023-04-01T01:19:49;10.90;99.90
2571;DHT22;1295;51.130;6.732;2023-04-01T01:22:41;10.50;99.90
2571;DHT22;1295;51.130;6.732;2023-04-01T01:25:25;10.50;99.90
2571;DHT22;1295;51.130;6.732;2023-04-01T01:27:48;10.80;99.90
2571;DHT22;1295;51.130;6.732;2023-04-01T01:30:20;10.60;99.90
2571;DHT22;1295;51.130;6.732;2023-04-01T01:35:22;10.70;99.90
2571;DHT22;1295;51.130;6.732;2023-04-01T01:37:47;10.80;99.90
2571;DHT22;1295;51.130;6.732;2023-04-01T01:40:12;10.60;99.90
2571;DHT22;1295;51.130;6.732;2023-04-01T01:42:38;10.70;99.90
2571;DHT22;1295;51.130;6.732;2023-04-01T01:45:04;10.80;99.90
2571;DHT22;1295;51.130;6.732;2023-04-01T01:47:30;10.60;99.90
2571;DHT22;1295;51.130;6.732;2023-04-01T01:49:56;10.70;99.90
2571;DHT22;1295;51.130;6.732;2023-04-01T01:52:22;10.50;99.90
2571;DHT22;1295;51.130;6.732;2023-04-01T01:54:51;10.60;99.90
2571;DHT22;1295;51.130;6.732;2023-04-01T01:57:17;10.60;99.90
2571;DHT22;1295;51.130;6.732;2023-04-01T01:59:42;10.40;99.90
2571;DHT22;1295;51.130;6.732;2023-04-01T02:02:08;10.40;99.90
2571;DHT22;1295;51.130;6.732;2023-04-01T02:04:43;10.30;99.90
2571;DHT22;1295;51.130;6.732;2023-04-01T02:07:11;10.50;99.90
2571;DHT22;1295;51.130;6.732;2023-04-01T02:09:34;10.30;99.90
2571;DHT22;1295;51.130;6.732;2023-04-01T02:12:02;10.70;99.90
2571;DHT22;1295;51.130;6.732;2023-04-01T02:14:28;10.70;99.90
2571;DHT22;1295;51.130;6.732;2023-04-01T02:19:53;10.30;99.90
2571;DHT22;1295;51.130;6.732;2023-04-01T02:22:20;10.40;99.90
2571;DHT22;1295;51.130;6.732;2023-04-01T02:24:44;10.50;99.90
2571;DHT22;1295;51.130;6.732;2023-04-01T02:27:10;10.50;99.90
2571;DHT22;1295;51.130;6.732;2023-04-01T02:29:35;10.40;99.90
2571;DHT22;1295;51.130;6.732;2023-04-01T02:32:01;10.50;99.90
2571;DHT22;1295;51.130;6.732;2023-04-01T02:34:28;10.50;99.90
2571;DHT22;1295;51.130;6.732;2023-04-01T02:36:53;10.50;99.90
2571;DHT22;1295;51.130;6.732;2023-04-01T02:39:19;10.50;99.90
2571;DHT22;1295;51.130;6.732;2023-04-01T02:41:45;10.40;99.90
2571;DHT22;1295;51.130;6.732;2023-04-01T02:44:11;10.40;99.90
2571;DHT22;1295;51.130;6.732;2023-04-01T02:46:37;10.50;99.90
2571;DHT22;1295;51.130;6.732;2023-04-01T02:49:02;10.50;99.90
2571;DHT22;1295;51.130;6.732;2023-04-01T02:51:28;10.40;99.90
2571;DHT22;1295;51.130;6.732;2023-04-01T02:53:54;10.40;99.90
2571;DHT22;1295;51.130;6.732;2023-04-01T02:56:24;10.50;99.90
2571;DHT22;1295;51.130;6.732;2023-04-01T02:58:50;10.50;99.90
2571;DHT22;1295;51.130;6.732;2023-04-01T03:01:16;10.40;99.90
2571;DHT22;1295;51.130;6.732;2023-04-01T03:03:41;10.40;99.90
2571;DHT22;1295;51.130;6.732;2023-04-01T03:06:08;10.40;99.90
2571;DHT22;1295;51.130;6.732;2023-04-01T03:08:33;10.50;99.90
2571;DHT22;1295;51.130;6.732;2023-04-01T03:10:59;10.40;99.90
2571;DHT22;1295;51.130;6.732;2023-04-01T03:13:25;10.40;99.90
2571;DHT22;1295;51.130;6.732;2023-04-01T03:15:51;10.30;99.90
2571;DHT22;1295;51.130;6.732;2023-04-01T03:18:17;10.30;99.90
2571;DHT22;1295;51.130;6.732;2023-04-01T03:20:43;10.40;99.90
2571;DHT22;1295;51.130;6.732;2023-04-01T03:23:08;10.50;99.90
2571;DHT22;1295;51.130;6.732;2023-04-01T03:25:41;10.40;99.90
2571;DHT22;1295;51.130;6.732;2023-04-01T03:28:06;10.40;99.90
2571;DHT22;1295;51.130;6.732;2023-04-01T03:30:32;10.30;99.90
2571;DHT22;1295;51.130;6.732;2023-04-01T03:32:58;10.40;99.90
2571;DHT22;1295;51.130;6.732;2023-04-01T03:35:24;10.40;99.90
2571;DHT22;1295;51.130;6.732;2023-04-01T03:37:50;10.40;99.90
2571;DHT22;1295;51.130;6.732;2023-04-01T03:40:15;10.30;99.90
2571;DHT22;1295;51.130;6.732;2023-04-01T03:42:41;10.40;99.90
2571;DHT22;1295;51.130;6.732;2023-04-01T03:45:07;10.60;99.90
2571;DHT22;1295;51.130;6.732;2023-04-01T03:47:33;10.40;99.90
2571;DHT22;1295;51.130;6.732;2023-04-01T03:49:59;10.50;99.90
2571;DHT22;1295;51.130;6.732;2023-04-01T03:52:24;10.40;99.90
2571;DHT22;1295;51.130;6.732;2023-04-01T03:54:55;10.50;99.90
2571;DHT22;1295;51.130;6.732;2023-04-01T03:57:26;10.30;99.90
2571;DHT22;1295;51.130;6.732;2023-04-01T03:59:52;10.40;99.90
2571;DHT22;1295;51.130;6.732;2023-04-01T04:02:18;10.30;99.90
2571;DHT22;1295;51.130;6.732;2023-04-01T04:04:44;10.30;99.90
2571;DHT22;1295;51.130;6.732;2023-04-01T04:07:09;10.30;99.90
2571;DHT22;1295;51.130;6.732;2023-04-01T04:09:35;10.30;99.90
2571;DHT22;1295;51.130;6.732;2023-04-01T04:12:01;10.40;99.90
2571;DHT22;1295;51.130;6.732;2023-04-01T04:14:27;10.30;99.90
2571;DHT22;1295;51.130;6.732;2023-04-01T04:16:53;10.30;99.90
2571;DHT22;1295;51.130;6.732;2023-04-01T04:19:18;10.30;99.90
2571;DHT22;1295;51.130;6.732;2023-04-01T04:21:44;10.30;99.90
2571;DHT22;1295;51.130;6.732;2023-04-01T04:24:10;10.40;99.90
2571;DHT22;1295;51.130;6.732;2023-04-01T04:26:36;10.40;99.90
2571;DHT22;1295;51.130;6.732;2023-04-01T04:29:02;10.30;99.90
2571;DHT22;1295;51.130;6.732;2023-04-01T04:31:27;10.30;99.90
2571;DHT22;1295;51.130;6.732;2023-04-01T04:33:53;10.30;99.90
2571;DHT22;1295;51.130;6.732;2023-04-01T04:36:20;10.40;99.90
2571;DHT22;1295;51.130;6.732;2023-04-01T04:38:45;10.40;99.90
2571;DHT22;1295;51.130;6.732;2023-04-01T04:41:11;10.40;99.90
2571;DHT22;1295;51.130;6.732;2023-04-01T04:43:37;10.30;99.90
2571;DHT22;1295;51.130;6.732;2023-04-01T04:46:07;10.30;99.90
2571;DHT22;1295;51.130;6.732;2023-04-01T04:48:32;10.30;99.90
2571;DHT22;1295;51.130;6.732;2023-04-01T04:50:58;10.30;99.90
2571;DHT22;1295;51.130;6.732;2023-04-01T04:53:23;10.30;99.90
2571;DHT22;1295;51.130;6.732;2023-04-01T04:55:49;10.40;99.90
2571;DHT22;1295;51.130;6.732;2023-04-01T04:58:16;10.40;99.90
2571;DHT22;1295;51.130;6.732;2023-04-01T05:00:41;10.40;99.90
2571;DHT22;1295;51.130;6.732;2023-04-01T05:03:07;10.40;99.90
2571;DHT22;1295;51.130;6.732;2023-04-01T05:05:32;10.30;99.90
2571;DHT22;1295;51.130;6.732;2023-04-01T05:07:58;10.40;99.90
2571;DHT22;1295;51.130;6.732;2023-04-01T05:10:24;10.30;99.90
2571;DHT22;1295;51.130;6.732;2023-04-01T05:12:49;10.20;99.90
2571;DHT22;1295;51.130;6.732;2023-04-01T05:15:15;10.20;99.90
2571;DHT22;1295;51.130;6.732;2023-04-01T05:17:41;10.20;99.90
2571;DHT22;1295;51.130;6.732;2023-04-01T05:20:07;10.20;99.90
2571;DHT22;1295;51.130;6.732;2023-04-01T05:22:33;10.20;99.90
2571;DHT22;1295;51.130;6.732;2023-04-01T05:24:58;10.00;99.90
2571;DHT22;1295;51.130;6.732;2023-04-01T05:27:24;10.30;99.90
2571;DHT22;1295;51.130;6.732;2023-04-01T05:29:49;10.20;99.90
2571;DHT22;1295;51.130;6.732;2023-04-01T05:32:15;10.50;99.90
2571;DHT22;1295;51.130;6.732;2023-04-01T05:34:41;10.30;99.90
2571;DHT22;1295;51.130;6.732;2023-04-01T05:37:06;10.20;99.90
2571;DHT22;1295;51.130;6.732;2023-04-01T05:39:36;10.20;99.90
2571;DHT22;1295;51.130;6.732;2023-04-01T05:41:58;10.30;99.90
2571;DHT22;1295;51.130;6.732;2023-04-01T05:44:23;10.30;99.90
2571;DHT22;1295;51.130;6.732;2023-04-01T05:46:49;10.30;99.90
2571;DHT22;1295;51.130;6.732;2023-04-01T05:49:14;10.20;99.90
2571;DHT22;1295;51.130;6.732;2023-04-01T05:51:40;10.30;99.90
2571;DHT22;1295;51.130;6.732;2023-04-01T05:54:06;10.20;99.90
2571;DHT22;1295;51.130;6.732;2023-04-01T05:56:31;10.20;99.90
2571;DHT22;1295;51.130;6.732;2023-04-01T05:58:58;10.20;99.90
2571;DHT22;1295;51.130;6.732;2023-04-01T06:01:24;10.20;99.90
2571;DHT22;1295;51.130;6.732;2023-04-01T06:03:50;10.20;99.90
2571;DHT22;1295;51.130;6.732;2023-04-01T06:06:31;10.20;99.90
2571;DHT22;1295;51.130;6.732;2023-04-01T06:08:57;10.20;99.90
2571;DHT22;1295;51.130;6.732;2023-04-01T06:14:51;10.10;99.90
2571;DHT22;1295;51.130;6.732;2023-04-01T06:17:03;10.20;99.90
2571;DHT22;1295;51.130;6.732;2023-04-01T06:19:47;10.20;99.90
2571;DHT22;1295;51.130;6.732;2023-04-01T06:25:12;10.20;99.90
2571;DHT22;1295;51.130;6.732;2023-04-01T06:27:45;10.20;99.90
2571;DHT22;1295;51.130;6.732;2023-04-01T06:33:18;10.10;99.90
2571;DHT22;1295;51.130;6.732;2023-04-01T06:38:17;10.20;99.90
2571;DHT22;1295;51.130;6.732;2023-04-01T06:40:56;10.30;99.90
2571;DHT22;1295;51.130;6.732;2023-04-01T06:47:14;10.20;99.90
2571;DHT22;1295;51.130;6.732;2023-04-01T06:49:24;10.30;99.90
2571;DHT22;1295;51.130;6.732;2023-04-01T06:52:05;10.20;99.90
2571;DHT22;1295;51.130;6.732;2023-04-01T06:54:32;10.20;99.90
2571;DHT22;1295;51.130;6.732;2023-04-01T06:57:00;10.10;99.90
2571;DHT22;1295;51.130;6.732;2023-04-01T06:59:25;10.20;99.90
2571;DHT22;1295;51.130;6.732;2023-04-01T07:01:51;10.10;99.90
2571;DHT22;1295;51.130;6.732;2023-04-01T07:04:34;10.10;99.90
2571;DHT22;1295;51.130;6.732;2023-04-01T07:06:59;10.00;99.90
2571;DHT22;1295;51.130;6.732;2023-04-01T07:09:32;10.20;99.90
2571;DHT22;1295;51.130;6.732;2023-04-01T07:11:58;10.20;99.90
2571;DHT22;1295;51.130;6.732;2023-04-01T07:14:26;10.20;99.90
2571;DHT22;1295;51.130;6.732;2023-04-01T07:16:54;10.10;99.90
2571;DHT22;1295;51.130;6.732;2023-04-01T07:20:29;10.20;99.90
2571;DHT22;1295;51.130;6.732;2023-04-01T07:22:05;10.10;99.90
2571;DHT22;1295;51.130;6.732;2023-04-01T07:24:33;10.20;99.90
2571;DHT22;1295;51.130;6.732;2023-04-01T07:26:58;10.20;99.90
2571;DHT22;1295;51.130;6.732;2023-04-01T07:29:23;10.20;99.90
2571;DHT22;1295;51.130;6.732;2023-04-01T07:31:57;10.10;99.90
2571;DHT22;1295;51.130;6.732;2023-04-01T07:34:22;10.10;99.90
2571;DHT22;1295;51.130;6.732;2023-04-01T07:36:47;10.20;99.90
2571;DHT22;1295;51.130;6.732;2023-04-01T07:41:51;10.10;99.90
2571;DHT22;1295;51.130;6.732;2023-04-01T07:44:20;10.10;99.90
2571;DHT22;1295;51.130;6.732;2023-04-01T07:46:47;10.20;99.90
2571;DHT22;1295;51.130;6.732;2023-04-01T07:49:15;10.20;99.90
2571;DHT22;1295;51.130;6.732;2023-04-01T07:52:03;10.20;99.90
2571;DHT22;1295;51.130;6.732;2023-04-01T07:54:48;10.20;99.90
2571;DHT22;1295;51.130;6.732;2023-04-01T07:57:19;10.10;99.90
2571;DHT22;1295;51.130;6.732;2023-04-01T07:59:55;10.20;99.90
2571;DHT22;1295;51.130;6.732;2023-04-01T08:02:24;10.20;99.90
2571;DHT22;1295;51.130;6.732;2023-04-01T08:04:55;10.20;99.90
2571;DHT22;1295;51.130;6.732;2023-04-01T08:07:22;10.10;99.90
2571;DHT22;1295;51.130;6.732;2023-04-01T08:10:11;10.10;99.90
2571;DHT22;1295;51.130;6.732;2023-04-01T08:12:43;10.20;99.90
2571;DHT22;1295;51.130;6.732;2023-04-01T08:15:10;10.20;99.90
2571;DHT22;1295;51.130;6.732;2023-04-01T08:20:16;10.20;99.90
2571;DHT22;1295;51.130;6.732;2023-04-01T08:22:42;10.30;99.90
2571;DHT22;1295;51.130;6.732;2023-04-01T08:25:09;10.30;99.90
2571;DHT22;1295;51.130;6.732;2023-04-01T08:27:37;10.20;99.90
2571;DHT22;1295;51.130;6.732;2023-04-01T08:30:22;10.10;99.90
2571;DHT22;1295;51.130;6.732;2023-04-01T08:32:50;10.10;99.90
2571;DHT22;1295;51.130;6.732;2023-04-01T08:35:24;10.10;99.90
2571;DHT22;1295;51.130;6.732;2023-04-01T08:37:46;10.10;99.90
2571;DHT22;1295;51.130;6.732;2023-04-01T08:40:32;10.20;99.90
2571;DHT22;1295;51.130;6.732;2023-04-01T08:45:40;10.10;99.90
2571;DHT22;1295;51.130;6.732;2023-04-01T08:48:23;10.20;99.90
2571;DHT22;1295;51.130;6.732;2023-04-01T08:51:15;10.20;99.90
2571;DHT22;1295;51.130;6.732;2023-04-01T08:56:14;10.20;99.90
2571;DHT22;1295;51.130;6.732;2023-04-01T09:09:54;10.30;99.90
2571;DHT22;1295;51.130;6.732;2023-04-01T09:12:31;10.40;99.90
2571;DHT22;1295;51.130;6.732;2023-04-01T09:14:58;10.40;99.90
2571;DHT22;1295;51.130;6.732;2023-04-01T09:17:45;10.20;99.90
2571;DHT22;1295;51.130;6.732;2023-04-01T09:20:18;10.20;99.90
2571;DHT22;1295;51.130;6.732;2023-04-01T09:22:53;10.20;99.90
2571;DHT22;1295;51.130;6.732;2023-04-01T09:25:29;10.20;99.90
2571;DHT22;1295;51.130;6.732;2023-04-01T09:31:11;10.30;99.90
2571;DHT22;1295;51.130;6.732;2023-04-01T09:36:44;10.20;99.90
2571;DHT22;1295;51.130;6.732;2023-04-01T09:39:28;10.20;99.90
2571;DHT22;1295;51.130;6.732;2023-04-01T09:43:05;10.30;99.90
2571;DHT22;1295;51.130;6.732;2023-04-01T09:45:00;10.30;99.90
2571;DHT22;1295;51.130;6.732;2023-04-01T09:47:38;10.30;99.90
2571;DHT22;1295;51.130;6.732;2023-04-01T09:53:13;10.20;99.90
2571;DHT22;1295;51.130;6.732;2023-04-01T09:58:33;10.30;99.90
2571;DHT22;1295;51.130;6.732;2023-04-01T10:01:19;10.20;99.90
2571;DHT22;1295;51.130;6.732;2023-04-01T10:04:13;10.20;99.90
2571;DHT22;1295;51.130;6.732;2023-04-01T10:09:23;10.40;99.90
2571;DHT22;1295;51.130;6.732;2023-04-01T10:12:58;10.40;99.90
2571;DHT22;1295;51.130;6.732;2023-04-01T10:14:43;10.50;99.90
2571;DHT22;1295;51.130;6.732;2023-04-01T10:17:22;10.40;99.90
2571;DHT22;1295;51.130;6.732;2023-04-01T10:22:28;10.50;99.90
2571;DHT22;1295;51.130;6.732;2023-04-01T10:25:15;10.40;99.90
2571;DHT22;1295;51.130;6.732;2023-04-01T10:35:59;10.30;99.90
2571;DHT22;1295;51.130;6.732;2023-04-01T10:38:36;10.30;99.90
2571;DHT22;1295;51.130;6.732;2023-04-01T10:41:19;10.40;99.90
2571;DHT22;1295;51.130;6.732;2023-04-01T10:44:24;10.40;99.90
2571;DHT22;1295;51.130;6.732;2023-04-01T10:58:13;10.40;99.90
2571;DHT22;1295;51.130;6.732;2023-04-01T11:16:50;10.60;99.90
2571;DHT22;1295;51.130;6.732;2023-04-01T11:22:15;10.60;99.90
2571;DHT22;1295;51.130;6.732;2023-04-01T11:24:57;10.50;99.90
2571;DHT22;1295;51.130;6.732;2023-04-01T11:27:30;10.50;99.90
2571;DHT22;1295;51.130;6.732;2023-04-01T11:32:52;10.60;99.90
2571;DHT22;1295;51.130;6.732;2023-04-01T11:35:23;10.50;99.90
2571;DHT22;1295;51.130;6.732;2023-04-01T11:37:51;10.50;99.90
2571;DHT22;1295;51.130;6.732;2023-04-01T11:40:27;10.50;99.90
2571;DHT22;1295;51.130;6.732;2023-04-01T11:42:51;10.60;99.90
2571;DHT22;1295;51.130;6.732;2023-04-01T11:45:56;10.60;99.90
2571;DHT22;1295;51.130;6.732;2023-04-01T11:51:13;10.60;99.90
2571;DHT22;1295;51.130;6.732;2023-04-01T11:56:38;10.60;99.90
2571;DHT22;1295;51.130;6.732;2023-04-01T12:02:23;10.60;99.90
2571;DHT22;1295;51.130;6.732;2023-04-01T12:05:03;10.60;99.90
2571;DHT22;1295;51.130;6.732;2023-04-01T12:07:50;10.60;99.90
2571;DHT22;1295;51.130;6.732;2023-04-01T12:10:18;10.70;99.90
2571;DHT22;1295;51.130;6.732;2023-04-01T12:15:27;10.70;99.90
2571;DHT22;1295;51.130;6.732;2023-04-01T12:17:51;10.70;99.90
2571;DHT22;1295;51.130;6.732;2023-04-01T12:20:57;10.80;99.90
2571;DHT22;1295;51.130;6.732;2023-04-01T12:23:10;10.80;99.90
2571;DHT22;1295;51.130;6.732;2023-04-01T12:25:55;10.70;99.90
2571;DHT22;1295;51.130;6.732;2023-04-01T12:28:23;10.70;99.90
2571;DHT22;1295;51.130;6.732;2023-04-01T12:31:01;10.80;99.90
2571;DHT22;1295;51.130;6.732;2023-04-01T12:33:42;10.80;99.90
2571;DHT22;1295;51.130;6.732;2023-04-01T12:36:27;10.70;99.90
2571;DHT22;1295;51.130;6.732;2023-04-01T12:39:14;10.70;99.90
2571;DHT22;1295;51.130;6.732;2023-04-01T12:41:41;10.70;99.90
2571;DHT22;1295;51.130;6.732;2023-04-01T12:47:06;10.70;99.90
2571;DHT22;1295;51.130;6.732;2023-04-01T12:52:18;10.70;99.90
2571;DHT22;1295;51.130;6.732;2023-04-01T12:54:48;10.70;99.90
2571;DHT22;1295;51.130;6.732;2023-04-01T12:57:25;10.70;99.90
2571;DHT22;1295;51.130;6.732;2023-04-01T13:00:03;10.70;99.90
2571;DHT22;1295;51.130;6.732;2023-04-01T13:02:36;10.70;99.90
2571;DHT22;1295;51.130;6.732;2023-04-01T13:05:18;10.70;99.90
2571;DHT22;1295;51.130;6.732;2023-04-01T13:07:46;10.70;99.90
2571;DHT22;1295;51.130;6.732;2023-04-01T13:10:32;10.70;99.90
2571;DHT22;1295;51.130;6.732;2023-04-01T13:13:00;10.70;99.90
2571;DHT22;1295;51.130;6.732;2023-04-01T13:15:33;10.80;99.90
2571;DHT22;1295;51.130;6.732;2023-04-01T13:20:36;10.70;99.90
2571;DHT22;1295;51.130;6.732;2023-04-01T13:23:24;10.70;99.90
2571;DHT22;1295;51.130;6.732;2023-04-01T13:25:58;10.70;99.90
2571;DHT22;1295;51.130;6.732;2023-04-01T13:28:23;10.60;99.90
2571;DHT22;1295;51.130;6.732;2023-04-01T13:30:55;10.70;99.90
2571;DHT22;1295;51.130;6.732;2023-04-01T13:34:00;10.70;99.90
2571;DHT22;1295;51.130;6.732;2023-04-01T13:36:17;10.80;99.90
2571;DHT22;1295;51.130;6.732;2023-04-01T13:38:59;10.80;99.90
2571;DHT22;1295;51.130;6.732;2023-04-01T13:41:38;10.80;99.90
2571;DHT22;1295;51.130;6.732;2023-04-01T13:44:22;10.80;99.90
2571;DHT22;1295;51.130;6.732;2023-04-01T13:47:01;10.80;99.90
2571;DHT22;1295;51.130;6.732;2023-04-01T13:49:26;10.80;99.90
2571;DHT22;1295;51.130;6.732;2023-04-01T13:54:51;10.80;99.90
2571;DHT22;1295;51.130;6.732;2023-04-01T13:57:27;10.90;99.90
2571;DHT22;1295;51.130;6.732;2023-04-01T14:06:05;10.90;99.90
2571;DHT22;1295;51.130;6.732;2023-04-01T14:11:07;10.90;99.90
2571;DHT22;1295;51.130;6.732;2023-04-01T14:13:41;10.90;99.90
2571;DHT22;1295;51.130;6.732;2023-04-01T14:16:13;10.90;99.90
2571;DHT22;1295;51.130;6.732;2023-04-01T14:18:53;10.90;99.90
2571;DHT22;1295;51.130;6.732;2023-04-01T14:21:40;11.00;99.90
2571;DHT22;1295;51.130;6.732;2023-04-01T14:24:15;11.00;99.90
2571;DHT22;1295;51.130;6.732;2023-04-01T14:29:16;11.00;99.90
2571;DHT22;1295;51.130;6.732;2023-04-01T14:31:51;11.00;99.90
2571;DHT22;1295;51.130;6.732;2023-04-01T14:34:34;11.00;99.90
2571;DHT22;1295;51.130;6.732;2023-04-01T14:37:25;11.00;99.90
2571;DHT22;1295;51.130;6.732;2023-04-01T14:40:03;10.90;99.90
2571;DHT22;1295;51.130;6.732;2023-04-01T14:43:10;10.80;99.90
2571;DHT22;1295;51.130;6.732;2023-04-01T14:50:45;10.90;99.90
2571;DHT22;1295;51.130;6.732;2023-04-01T14:53:26;10.90;99.90
2571;DHT22;1295;51.130;6.732;2023-04-01T14:55:54;10.90;99.90
2571;DHT22;1295;51.130;6.732;2023-04-01T14:58:19;10.90;99.90
2571;DHT22;1295;51.130;6.732;2023-04-01T15:00:50;10.90;99.90
2571;DHT22;1295;51.130;6.732;2023-04-01T15:03:18;10.90;99.90
2571;DHT22;1295;51.130;6.732;2023-04-01T15:05:49;10.90;99.90
2571;DHT22;1295;51.130;6.732;2023-04-01T15:08:21;10.80;99.90
2571;DHT22;1295;51.130;6.732;2023-04-01T15:13:31;10.90;99.90
2571;DHT22;1295;51.130;6.732;2023-04-01T15:16:18;10.90;99.90
2571;DHT22;1295;51.130;6.732;2023-04-01T15:21:36;10.90;99.90
2571;DHT22;1295;51.130;6.732;2023-04-01T15:24:06;10.90;99.90
2571;DHT22;1295;51.130;6.732;2023-04-01T15:27:08;10.90;99.90
2571;DHT22;1295;51.130;6.732;2023-04-01T15:29:32;10.90;99.90
2571;DHT22;1295;51.130;6.732;2023-04-01T15:32:29;10.90;99.90
2571;DHT22;1295;51.130;6.732;2023-04-01T15:34:41;10.90;99.90
2571;DHT22;1295;51.130;6.732;2023-04-01T15:37:08;10.90;99.90
2571;DHT22;1295;51.130;6.732;2023-04-01T15:39:43;10.90;99.90
2571;DHT22;1295;51.130;6.732;2023-04-01T15:42:15;10.90;99.90
2571;DHT22;1295;51.130;6.732;2023-04-01T15:44:53;10.90;99.90
2571;DHT22;1295;51.130;6.732;2023-04-01T15:47:31;10.90;99.90
2571;DHT22;1295;51.130;6.732;2023-04-01T15:52:49;10.80;99.90
2571;DHT22;1295;51.130;6.732;2023-04-01T16:03:28;10.80;99.90
2571;DHT22;1295;51.130;6.732;2023-04-01T16:06:12;10.80;99.90
2571;DHT22;1295;51.130;6.732;2023-04-01T16:17:33;10.80;99.90
2571;DHT22;1295;51.130;6.732;2023-04-01T16:20:20;10.70;99.90
2571;DHT22;1295;51.130;6.732;2023-04-01T16:22:49;10.70;99.90
2571;DHT22;1295;51.130;6.732;2023-04-01T16:28:03;10.70;99.90
2571;DHT22;1295;51.130;6.732;2023-04-01T16:30:44;10.70;99.90
2571;DHT22;1295;51.130;6.732;2023-04-01T16:34:17;10.70;99.90
2571;DHT22;1295;51.130;6.732;2023-04-01T16:35:58;10.70;99.90
2571;DHT22;1295;51.130;6.732;2023-04-01T16:38:34;10.70;99.90
2571;DHT22;1295;51.130;6.732;2023-04-01T16:41:07;10.70;99.90
2571;DHT22;1295;51.130;6.732;2023-04-01T16:43:35;10.70;99.90
2571;DHT22;1295;51.130;6.732;2023-04-01T16:46:12;10.80;99.90
2571;DHT22;1295;51.130;6.732;2023-04-01T16:48:36;10.70;99.90
2571;DHT22;1295;51.130;6.732;2023-04-01T16:51:03;10.80;99.90
2571;DHT22;1295;51.130;6.732;2023-04-01T16:53:36;10.80;99.90
2571;DHT22;1295;51.130;6.732;2023-04-01T16:56:03;10.70;99.90
2571;DHT22;1295;51.130;6.732;2023-04-01T16:58:24;10.70;99.90
2571;DHT22;1295;51.130;6.732;2023-04-01T17:00:49;10.60;99.90
2571;DHT22;1295;51.130;6.732;2023-04-01T17:05:58;10.60;99.90
2571;DHT22;1295;51.130;6.732;2023-04-01T17:08:50;10.60;99.90
2571;DHT22;1295;51.130;6.732;2023-04-01T17:11:19;10.60;99.90
2571;DHT22;1295;51.130;6.732;2023-04-01T17:13:50;10.50;99.90
2571;DHT22;1295;51.130;6.732;2023-04-01T17:16:28;10.40;99.90
2571;DHT22;1295;51.130;6.732;2023-04-01T17:18:59;10.50;99.90
2571;DHT22;1295;51.130;6.732;2023-04-01T17:22:10;10.50;99.90
2571;DHT22;1295;51.130;6.732;2023-04-01T17:24:27;10.50;99.90
2571;DHT22;1295;51.130;6.732;2023-04-01T17:30:08;10.50;99.90
2571;DHT22;1295;51.130;6.732;2023-04-01T17:32:46;10.30;99.90
2571;DHT22;1295;51.130;6.732;2023-04-01T17:35:16;10.40;99.90
2571;DHT22;1295;51.130;6.732;2023-04-01T17:38:02;10.60;99.90
2571;DHT22;1295;51.130;6.732;2023-04-01T17:40:31;10.60;99.90
2571;DHT22;1295;51.130;6.732;2023-04-01T17:45:49;10.50;99.90
2571;DHT22;1295;51.130;6.732;2023-04-01T17:48:18;10.40;99.90
2571;DHT22;1295;51.130;6.732;2023-04-01T17:51:08;10.30;99.90
2571;DHT22;1295;51.130;6.732;2023-04-01T17:53:35;10.40;99.90
2571;DHT22;1295;51.130;6.732;2023-04-01T17:56:03;10.30;99.90
2571;DHT22;1295;51.130;6.732;2023-04-01T17:58:32;10.30;99.90
2571;DHT22;1295;51.130;6.732;2023-04-01T18:00:59;10.20;99.90
2571;DHT22;1295;51.130;6.732;2023-04-01T18:07:15;10.30;99.90
2571;DHT22;1295;51.130;6.732;2023-04-01T18:08:59;10.30;99.90
2571;DHT22;1295;51.130;6.732;2023-04-01T18:11:33;10.30;99.90
2571;DHT22;1295;51.130;6.732;2023-04-01T18:14:18;10.20;99.90
2571;DHT22;1295;51.130;6.732;2023-04-01T18:17:01;10.20;99.90
2571;DHT22;1295;51.130;6.732;2023-04-01T18:19:51;10.20;99.90
2571;DHT22;1295;51.130;6.732;2023-04-01T18:22:38;10.30;99.90
2571;DHT22;1295;51.130;6.732;2023-04-01T18:28:06;10.20;99.90
2571;DHT22;1295;51.130;6.732;2023-04-01T18:30:26;10.10;99.90
2571;DHT22;1295;51.130;6.732;2023-04-01T18:32:52;10.10;99.90
2571;DHT22;1295;51.130;6.732;2023-04-01T18:35:20;10.10;99.90
2571;DHT22;1295;51.130;6.732;2023-04-01T18:37:45;10.00;99.90
2571;DHT22;1295;51.130;6.732;2023-04-01T18:40:12;10.10;99.90
2571;DHT22;1295;51.130;6.732;2023-04-01T18:43:02;10.20;99.90
2571;DHT22;1295;51.130;6.732;2023-04-01T18:45:28;10.10;99.90
2571;DHT22;1295;51.130;6.732;2023-04-01T18:48:37;10.10;99.90
2571;DHT22;1295;51.130;6.732;2023-04-01T18:50:44;10.10;99.90
2571;DHT22;1295;51.130;6.732;2023-04-01T18:53:22;10.00;99.90
2571;DHT22;1295;51.130;6.732;2023-04-01T18:55:49;10.10;99.90
2571;DHT22;1295;51.130;6.732;2023-04-01T18:58:25;10.10;99.90
2571;DHT22;1295;51.130;6.732;2023-04-01T19:01:04;10.00;99.90
2571;DHT22;1295;51.130;6.732;2023-04-01T19:03:43;10.00;99.90
2571;DHT22;1295;51.130;6.732;2023-04-01T19:06:13;10.20;99.90
2571;DHT22;1295;51.130;6.732;2023-04-01T19:08:34;10.10;99.90
2571;DHT22;1295;51.130;6.732;2023-04-01T19:11:09;10.20;99.90
2571;DHT22;1295;51.130;6.732;2023-04-01T19:13:51;10.20;99.90
2571;DHT22;1295;51.130;6.732;2023-04-01T19:16:25;10.20;99.90
2571;DHT22;1295;51.130;6.732;2023-04-01T19:18:58;10.10;99.90
2571;DHT22;1295;51.130;6.732;2023-04-01T19:21:28;10.20;99.90
2571;DHT22;1295;51.130;6.732;2023-04-01T19:24:16;10.00;99.90
2571;DHT22;1295;51.130;6.732;2023-04-01T19:29:32;10.00;99.90
2571;DHT22;1295;51.130;6.732;2023-04-01T19:32:14;10.00;99.90
2571;DHT22;1295;51.130;6.732;2023-04-01T19:34:55;9.90;99.90
2571;DHT22;1295;51.130;6.732;2023-04-01T19:37:26;9.90;99.90